Time;durP1;ratioP1;P1;durP2;ratioP2;P2;SDS_P1;SDS_P2;PMS_P1;PMS_P2;Temp;Humidity;BMP_temperature;BMP_pressure;BME280_temperature;BME280_humidity;BME280_pressure;Samples;Min_cycle;Max_cycle;Signal;HPM_P1;HPM_P2
2021/01/27 00:02:10;;;;;;;8.10;4.40;;;3.30;88.50;;;;;;4964819;28;20027;-93
2021/01/27 00:04:36;;;;;;;10.10;4.78;;;3.30;88.50;;;;;;4971008;28;20064;-94
2021/01/27 00:07:02;;;;;;;9.18;4.10;;;3.30;88.50;;;;;;4970679;28;20121;-94
2021/01/27 00:09:28;;;;;;;9.07;4.38;;;3.30;88.60;;;;;;4970615;28;20507;-94
2021/01/27 00:11:57;;;;;;;8.68;4.25;;;3.20;88.50;;;;;;4970320;28;20050;-94
2021/01/27 00:14:24;;;;;;;9.88;4.40;;;3.20;88.30;;;;;;4970822;28;20046;-93
2021/01/27 00:16:49;;;;;;;9.23;3.97;;;3.20;88.20;;;;;;4972813;28;20361;-94
2021/01/27 00:19:15;;;;;;;9.30;3.95;;;3.20;88.00;;;;;;4971919;28;20037;-94
2021/01/27 00:21:40;;;;;;;10.23;3.95;;;3.20;88.10;;;;;;4988347;28;20021;-93
2021/01/27 00:24:07;;;;;;;13.18;5.13;;;3.20;88.10;;;;;;4970986;28;20031;-93
2021/01/27 00:26:32;;;;;;;9.73;4.05;;;3.10;88.00;;;;;;4971915;28;20034;-94
2021/01/27 00:28:58;;;;;;;8.88;3.97;;;3.20;88.00;;;;;;4964262;28;20042;-93
2021/01/27 00:31:23;;;;;;;7.07;3.60;;;3.10;87.90;;;;;;4979394;28;20024;-94
2021/01/27 00:33:49;;;;;;;11.15;4.38;;;3.10;87.80;;;;;;4971101;28;20118;-95
2021/01/27 00:36:14;;;;;;;8.77;3.30;;;3.10;88.40;;;;;;4970271;28;20047;-94
2021/01/27 00:38:40;;;;;;;8.63;4.22;;;3.10;87.60;;;;;;4970897;28;20034;-94
2021/01/27 00:41:05;;;;;;;7.93;3.45;;;3.10;87.60;;;;;;4967840;28;20035;-94
2021/01/27 00:43:31;;;;;;;7.00;3.33;;;3.10;87.50;;;;;;4970854;28;20026;-93
2021/01/27 00:45:57;;;;;;;10.23;3.83;;;3.10;87.50;;;;;;4970057;28;20073;-93
2021/01/27 00:48:23;;;;;;;6.05;2.83;;;3.10;87.30;;;;;;4970900;28;20035;-92
2021/01/27 00:50:48;;;;;;;8.48;3.28;;;3.10;87.50;;;;;;4969820;28;20031;-94
2021/01/27 00:53:14;;;;;;;7.70;3.58;;;3.10;87.50;;;;;;4973396;28;20031;-93
2021/01/27 00:55:40;;;;;;;7.30;3.10;;;3.10;88.10;;;;;;4969545;28;20083;-94
2021/01/27 00:58:05;;;;;;;7.60;3.47;;;3.10;87.40;;;;;;4970197;28;20031;-94
2021/01/27 01:00:33;;;;;;;10.40;3.17;;;3.10;87.40;;;;;;4969112;28;20081;-92
2021/01/27 01:03:00;;;;;;;7.43;4.00;;;3.10;87.40;;;;;;4968029;28;20062;-93
2021/01/27 01:05:32;;;;;;;11.45;3.28;;;3.10;87.30;;;;;;4969128;28;20095;-94
2021/01/27 01:07:58;;;;;;;7.18;3.35;;;3.10;87.30;;;;;;4972974;28;20019;-93
2021/01/27 01:10:33;;;;;;;5.70;2.90;;;3.10;87.30;;;;;;4972986;28;20498;-95
2021/01/27 01:12:59;;;;;;;6.80;3.08;;;3.10;87.20;;;;;;4975107;28;20035;-94
2021/01/27 01:15:27;;;;;;;6.78;2.67;;;3.20;87.20;;;;;;4975089;28;20038;-92
2021/01/27 01:17:53;;;;;;;6.95;2.42;;;3.20;87.10;;;;;;4974755;28;20019;-92
2021/01/27 01:20:20;;;;;;;5.05;3.05;;;3.20;87.10;;;;;;4971700;28;20514;-93
2021/01/27 01:22:48;;;;;;;9.52;2.88;;;3.20;87.10;;;;;;4975556;28;20073;-93
2021/01/27 01:25:15;;;;;;;9.38;3.30;;;3.20;87.20;;;;;;4974327;28;20041;-93
2021/01/27 01:27:43;;;;;;;7.30;2.92;;;3.20;87.30;;;;;;4973367;28;20494;-92
2021/01/27 01:30:25;;;;;;;5.72;2.40;;;3.20;87.40;;;;;;4973114;28;20523;-93
2021/01/27 01:32:53;;;;;;;5.72;3.05;;;3.20;87.40;;;;;;4971976;28;20027;-93
2021/01/27 01:35:21;;;;;;;6.05;2.97;;;3.20;87.40;;;;;;4976504;28;20023;-93
2021/01/27 01:37:46;;;;;;;5.85;2.92;;;3.20;87.40;;;;;;4972657;28;20513;-93
2021/01/27 01:40:16;;;;;;;5.43;2.63;;;3.20;87.50;;;;;;4972767;28;20039;-93
2021/01/27 01:42:41;;;;;;;7.68;3.15;;;3.20;87.60;;;;;;4972089;28;20073;-93
2021/01/27 01:45:32;;;;;;;5.63;2.83;;;3.20;87.60;;;;;;4972741;28;20039;-92
2021/01/27 01:48:01;;;;;;;5.68;2.72;;;3.20;87.80;;;;;;4966136;28;20122;-94
2021/01/27 01:50:28;;;;;;;7.72;3.33;;;3.20;87.80;;;;;;4973510;28;20018;-93
2021/01/27 01:52:54;;;;;;;8.18;2.97;;;3.20;87.80;;;;;;4986181;28;20081;-92
2021/01/27 01:55:21;;;;;;;5.70;2.88;;;3.20;87.90;;;;;;4973059;28;20123;-92
2021/01/27 01:57:50;;;;;;;8.82;3.80;;;3.20;88.00;;;;;;4972201;28;20027;-91
2021/01/27 02:00:16;;;;;;;4.13;2.60;;;3.20;88.00;;;;;;4972682;28;20034;-92
2021/01/27 02:02:43;;;;;;;7.00;2.70;;;3.20;88.10;;;;;;4973149;28;20035;-92
2021/01/27 02:05:20;;;;;;;6.93;3.00;;;3.20;88.30;;;;;;4972418;28;20026;-92
2021/01/27 02:07:47;;;;;;;5.75;3.15;;;3.20;88.40;;;;;;4972058;28;20046;-91
2021/01/27 02:10:15;;;;;;;5.53;2.40;;;3.20;88.60;;;;;;4972253;28;20037;-92
2021/01/27 02:12:51;;;;;;;6.97;3.22;;;3.20;88.70;;;;;;4984793;28;20023;-91
2021/01/27 02:15:40;;;;;;;5.15;2.65;;;3.20;88.90;;;;;;4972143;28;20049;-90
2021/01/27 02:18:19;;;;;;;4.75;1.85;;;3.10;88.90;;;;;;4987464;28;20026;-91
2021/01/27 02:21:14;;;;;;;4.60;2.28;;;3.10;89.00;;;;;;4972456;28;20042;-93
2021/01/27 02:23:58;;;;;;;5.15;2.58;;;3.10;89.20;;;;;;4973784;28;20023;-92
2021/01/27 02:26:43;;;;;;;4.07;2.03;;;3.00;89.40;;;;;;4978137;28;20451;-92
2021/01/27 02:29:39;;;;;;;3.85;2.05;;;3.00;89.60;;;;;;4954566;28;20023;-92
2021/01/27 02:32:33;;;;;;;6.68;1.75;;;3.00;89.60;;;;;;4990198;28;20133;-92
2021/01/27 02:35:08;;;;;;;4.25;1.83;;;3.00;89.70;;;;;;4965061;28;20054;-93
2021/01/27 02:37:49;;;;;;;3.60;1.73;;;3.00;90.00;;;;;;4987982;28;20054;-91
2021/01/27 02:40:24;;;;;;;6.28;1.98;;;2.90;90.00;;;;;;4972772;28;20031;-92
2021/01/27 02:43:02;;;;;;;4.55;1.63;;;3.00;89.90;;;;;;4971885;28;20023;-92
2021/01/27 02:45:33;;;;;;;3.42;1.23;;;3.00;89.80;;;;;;4974423;28;20022;-94
2021/01/27 02:48:04;;;;;;;4.25;1.40;;;3.00;90.00;;;;;;4974364;28;20031;-93
2021/01/27 02:50:48;;;;;;;4.43;1.60;;;3.00;90.10;;;;;;4971848;28;20026;-93
2021/01/27 02:53:21;;;;;;;2.78;1.20;;;3.00;90.00;;;;;;4986711;28;20035;-93
2021/01/27 02:56:22;;;;;;;5.78;1.65;;;3.00;90.00;;;;;;4971992;28;20034;-93
2021/01/27 02:59:15;;;;;;;5.90;1.77;;;3.00;90.00;;;;;;4969707;28;20038;-93
2021/01/27 03:01:45;;;;;;;4.22;1.58;;;3.00;90.00;;;;;;4969949;28;20391;-93
2021/01/27 03:04:19;;;;;;;6.13;1.33;;;2.90;90.00;;;;;;4972751;28;20035;-94
2021/01/27 03:06:46;;;;;;;3.63;1.20;;;2.90;90.10;;;;;;4967647;28;20030;-94
2021/01/27 03:09:29;;;;;;;3.90;1.42;;;2.90;90.20;;;;;;4972119;28;20083;-93
2021/01/27 03:11:55;;;;;;;4.05;1.30;;;2.90;90.20;;;;;;4970381;28;20038;-95
2021/01/27 03:14:20;;;;;;;5.15;1.20;;;2.80;90.30;;;;;;4971583;28;20075;-94
2021/01/27 03:16:53;;;;;;;3.00;1.50;;;2.80;90.30;;;;;;4972551;28;20030;-94
2021/01/27 03:19:22;;;;;;;;;;;2.80;90.40;;;;;;4970713;28;20042;-93
2021/01/27 03:21:54;;;;;;;4.15;1.30;;;2.80;90.50;;;;;;4970233;28;19910;-93
2021/01/27 03:24:23;;;;;;;4.85;2.13;;;2.80;90.40;;;;;;4972625;28;20019;-93
2021/01/27 03:27:03;;;;;;;3.50;1.00;;;2.80;90.40;;;;;;4980264;28;20049;-93
2021/01/27 03:29:41;;;;;;;3.72;1.40;;;2.80;90.50;;;;;;4969420;28;20169;-93
2021/01/27 03:32:12;;;;;;;3.70;1.33;;;2.80;90.40;;;;;;4970482;28;20034;-94
2021/01/27 03:34:40;;;;;;;4.85;1.88;;;2.80;90.50;;;;;;4970503;28;20019;-93
2021/01/27 03:37:21;;;;;;;5.32;1.10;;;2.80;90.80;;;;;;4971307;28;20035;-94
2021/01/27 03:39:51;;;;;;;3.70;1.20;;;2.80;90.60;;;;;;4952643;29;20543;-94
2021/01/27 03:42:50;;;;;;;2.75;1.40;;;2.80;90.60;;;;;;4984706;28;20027;-95
2021/01/27 03:45:20;;;;;;;7.22;1.73;;;2.80;90.60;;;;;;4946932;28;20088;-93
2021/01/27 03:47:58;;;;;;;3.50;1.55;;;2.80;90.60;;;;;;4959570;28;20027;-93
2021/01/27 03:50:26;;;;;;;4.75;1.60;;;2.80;90.60;;;;;;4970741;28;20030;-95
2021/01/27 03:52:56;;;;;;;3.85;1.45;;;2.80;90.70;;;;;;4970590;28;20084;-94
2021/01/27 03:55:53;;;;;;;3.97;1.55;;;2.80;90.80;;;;;;4969432;28;20062;-94
2021/01/27 03:58:24;;;;;;;3.15;1.25;;;2.80;90.80;;;;;;4970256;28;20050;-93
2021/01/27 04:00:51;;;;;;;4.82;1.25;;;2.80;90.80;;;;;;4969445;28;20035;-95
2021/01/27 04:03:22;;;;;;;5.65;1.38;;;2.80;90.80;;;;;;4970500;28;20172;-95
2021/01/27 04:05:48;;;;;;;5.60;1.58;;;2.80;90.80;;;;;;4970639;28;20023;-94
2021/01/27 04:08:14;;;;;;;2.55;1.30;;;2.80;90.90;;;;;;4971523;28;20044;-94
2021/01/27 04:10:40;;;;;;;5.53;1.48;;;2.80;91.20;;;;;;4970369;28;20030;-95
2021/01/27 04:13:05;;;;;;;3.88;1.48;;;2.80;90.90;;;;;;4979672;28;20042;-94
2021/01/27 04:15:31;;;;;;;4.97;1.52;;;2.80;91.00;;;;;;4972040;28;20031;-94
2021/01/27 04:17:57;;;;;;;3.25;1.50;;;2.80;91.00;;;;;;4981617;28;20034;-95
2021/01/27 04:20:23;;;;;;;5.30;1.40;;;2.80;91.00;;;;;;4979884;28;20031;-94
2021/01/27 04:22:49;;;;;;;2.70;1.20;;;2.80;91.00;;;;;;4966920;28;20030;-94
2021/01/27 04:25:15;;;;;;;3.03;1.10;;;2.90;91.10;;;;;;4976011;28;20030;-94
2021/01/27 04:27:41;;;;;;;3.80;1.40;;;2.90;91.20;;;;;;4992683;28;20052;-94
2021/01/27 04:30:09;;;;;;;3.92;1.52;;;2.90;91.20;;;;;;4990413;28;20104;-95
2021/01/27 04:32:35;;;;;;;6.35;1.80;;;2.90;91.30;;;;;;4970594;28;20109;-94
2021/01/27 04:35:00;;;;;;;4.85;1.38;;;2.90;91.30;;;;;;4970689;28;20054;-94
2021/01/27 04:37:26;;;;;;;4.00;1.02;;;2.90;91.30;;;;;;4969222;28;20038;-94
2021/01/27 04:39:51;;;;;;;4.95;1.48;;;2.80;91.30;;;;;;4970366;28;20035;-95
2021/01/27 04:42:24;;;;;;;4.95;1.55;;;2.80;91.30;;;;;;4991769;28;20038;-94
2021/01/27 04:44:52;;;;;;;2.92;1.42;;;2.80;91.40;;;;;;4976968;28;20042;-94
2021/01/27 04:47:33;;;;;;;4.32;1.33;;;2.80;91.50;;;;;;4992567;28;20034;-94
2021/01/27 04:50:02;;;;;;;5.63;1.60;;;2.80;91.50;;;;;;5003778;28;20080;-94
2021/01/27 04:52:54;;;;;;;4.13;1.92;;;2.80;91.60;;;;;;4976135;28;20049;-94
2021/01/27 04:55:38;;;;;;;3.55;1.95;;;2.80;91.60;;;;;;4966922;28;20035;-95
2021/01/27 04:58:28;;;;;;;4.35;1.50;;;2.70;91.70;;;;;;4974651;28;20047;-93
2021/01/27 05:01:15;;;;;;;2.92;1.52;;;2.70;91.90;;;;;;4976349;28;20027;-94
2021/01/27 05:03:56;;;;;;;3.05;1.60;;;2.70;92.00;;;;;;4975616;28;20065;-93
2021/01/27 05:06:25;;;;;;;7.68;1.95;;;2.70;92.00;;;;;;4972298;28;20027;-94
2021/01/27 05:09:00;;;;;;;5.18;1.85;;;2.60;92.20;;;;;;4987903;28;20503;-94
2021/01/27 05:11:28;;;;;;;3.33;1.60;;;2.60;92.40;;;;;;4975099;28;20072;-94
2021/01/27 05:13:56;;;;;;;4.25;2.33;;;2.50;92.50;;;;;;4976659;28;20343;-94
2021/01/27 05:16:27;;;;;;;6.45;2.50;;;2.50;92.50;;;;;;4977349;28;20033;-94
2021/01/27 05:19:01;;;;;;;6.53;2.78;;;2.50;92.70;;;;;;4971966;28;20085;-94
2021/01/27 05:21:32;;;;;;;4.35;1.83;;;2.50;92.70;;;;;;4968349;28;20041;-95
2021/01/27 05:23:58;;;;;;;5.10;2.30;;;2.40;92.80;;;;;;4981399;28;20540;-95
2021/01/27 05:26:48;;;;;;;4.03;2.03;;;2.40;92.80;;;;;;4975558;28;20035;-95
2021/01/27 05:29:31;;;;;;;5.53;2.40;;;2.40;92.90;;;;;;4959252;28;20030;-95
2021/01/27 05:32:05;;;;;;;4.32;2.17;;;2.40;93.00;;;;;;4976203;28;20049;-95
2021/01/27 05:34:36;;;;;;;4.80;2.38;;;2.30;93.10;;;;;;4968275;28;20033;-93
2021/01/27 05:37:15;;;;;;;4.32;2.25;;;2.30;93.20;;;;;;4977119;28;20027;-95
2021/01/27 05:39:43;;;;;;;2.75;1.83;;;2.30;93.30;;;;;;4978436;28;20039;-95
2021/01/27 05:42:22;;;;;;;5.22;2.30;;;2.30;93.40;;;;;;5050823;28;20032;-95
2021/01/27 05:44:50;;;;;;;7.05;3.10;;;2.30;93.50;;;;;;5000977;28;20506;-95
2021/01/27 05:47:39;;;;;;;4.93;2.78;;;2.30;93.60;;;;;;4977958;28;20487;-95
2021/01/27 05:50:32;;;;;;;5.10;2.75;;;2.30;93.60;;;;;;4977348;28;20045;-95
2021/01/27 05:53:19;;;;;;;5.22;2.70;;;2.30;93.70;;;;;;4955680;28;20589;-95
2021/01/27 05:55:57;;;;;;;6.97;2.92;;;2.30;93.80;;;;;;4971028;28;20091;-94
2021/01/27 05:58:23;;;;;;;6.13;3.03;;;2.30;93.80;;;;;;4970570;28;20081;-95
2021/01/27 06:00:49;;;;;;;5.18;3.50;;;2.30;93.80;;;;;;4973780;28;20023;-96
2021/01/27 06:03:23;;;;;;;6.60;2.83;;;2.30;93.90;;;;;;5004353;28;20117;-94
2021/01/27 06:05:50;;;;;;;4.18;3.20;;;2.40;93.80;;;;;;4974140;28;20034;-94
2021/01/27 06:08:21;;;;;;;6.38;3.78;;;2.30;94.10;;;;;;4977693;28;20030;-95
2021/01/27 06:10:47;;;;;;;5.40;3.63;;;2.30;93.90;;;;;;4982685;28;20122;-95
2021/01/27 06:13:28;;;;;;;4.80;2.90;;;2.20;94.00;;;;;;4984936;28;20019;-95
2021/01/27 06:15:55;;;;;;;5.45;3.40;;;2.20;94.30;;;;;;4982624;28;20061;-95
2021/01/27 06:18:27;;;;;;;6.88;3.78;;;2.20;94.10;;;;;;4974886;28;20080;-94
2021/01/27 06:21:14;;;;;;;4.88;3.38;;;2.20;94.20;;;;;;4973648;28;20027;-95
2021/01/27 06:24:07;;;;;;;5.60;3.90;;;2.20;94.20;;;;;;4981225;28;20030;-95
2021/01/27 06:27:14;;;;;;;6.47;3.35;;;2.10;94.30;;;;;;4976384;28;20080;-94
2021/01/27 06:30:14;;;;;;;6.18;3.20;;;2.10;94.30;;;;;;4975948;28;20035;-95
2021/01/27 06:33:07;;;;;;;6.85;4.05;;;2.10;94.40;;;;;;4985263;28;20054;-95
2021/01/27 06:35:57;;;;;;;6.07;3.72;;;2.20;94.50;;;;;;4967229;28;20034;-95
2021/01/27 06:39:01;;;;;;;7.00;5.05;;;2.10;94.40;;;;;;4973001;28;20022;-95
2021/01/27 06:41:33;;;;;;;9.45;4.88;;;2.10;94.50;;;;;;4975039;28;20556;-95
2021/01/27 06:44:19;;;;;;;7.95;5.18;;;2.20;94.60;;;;;;4976732;28;20069;-96
2021/01/27 06:47:13;;;;;;;7.43;4.80;;;2.20;94.60;;;;;;5008289;28;20034;-95
2021/01/27 06:49:56;;;;;;;6.50;4.72;;;2.20;94.60;;;;;;4977480;28;20063;-96
2021/01/27 06:52:53;;;;;;;11.98;5.15;;;2.30;94.70;;;;;;4985636;28;20023;-95
2021/01/27 06:55:36;;;;;;;7.07;4.85;;;2.30;94.60;;;;;;5007031;28;20057;-95
2021/01/27 06:58:26;;;;;;;9.70;5.70;;;2.30;94.60;;;;;;4973731;28;20038;-95
2021/01/27 07:01:21;;;;;;;7.80;5.53;;;2.30;94.70;;;;;;4975815;28;20098;-96
2021/01/27 07:04:27;;;;;;;8.88;5.38;;;2.40;94.70;;;;;;5010407;28;20033;-96
2021/01/27 07:07:27;;;;;;;6.55;5.18;;;2.40;94.70;;;;;;4993297;28;20019;-96
2021/01/27 07:10:13;;;;;;;7.70;5.28;;;2.40;94.70;;;;;;4988759;28;20102;-96
2021/01/27 07:16:04;;;;;;;6.95;5.28;;;2.40;94.70;;;;;;5062020;28;20040;-96
2021/01/27 07:19:03;;;;;;;7.28;5.75;;;2.50;94.80;;;;;;5063509;28;20033;-96
2021/01/27 07:22:11;;;;;;;5.95;4.45;;;2.50;94.80;;;;;;5075434;28;20036;-96
2021/01/27 07:24:59;;;;;;;6.15;4.80;;;2.50;94.80;;;;;;5057208;28;20037;-96
2021/01/27 07:27:35;;;;;;;7.38;5.18;;;2.50;94.80;;;;;;5057732;28;20035;-96
2021/01/27 07:30:19;;;;;;;6.72;5.43;;;2.50;94.90;;;;;;5071983;28;20037;-96
2021/01/27 07:33:03;;;;;;;8.45;5.55;;;2.50;95.00;;;;;;5046750;28;20101;-95
2021/01/27 07:36:10;;;;;;;7.95;5.55;;;2.50;95.00;;;;;;4976842;28;20106;-95
2021/01/27 07:38:40;;;;;;;8.13;5.80;;;2.50;95.00;;;;;;5077059;28;20068;-96
2021/01/27 07:41:23;;;;;;;7.05;5.72;;;2.50;95.10;;;;;;4970958;28;20093;-96
2021/01/27 07:44:05;;;;;;;7.22;6.35;;;2.50;95.10;;;;;;5021409;28;20033;-96
2021/01/27 07:47:00;;;;;;;8.07;5.50;;;2.50;95.10;;;;;;4980001;28;20027;-96
2021/01/27 07:50:00;;;;;;;8.65;6.15;;;2.50;95.20;;;;;;4974921;29;20042;-96
2021/01/27 07:53:06;;;;;;;7.78;6.25;;;2.60;95.30;;;;;;4979739;28;20023;-96
2021/01/27 07:56:07;;;;;;;7.55;5.60;;;2.60;95.30;;;;;;4940054;29;20035;-95
2021/01/27 07:58:46;;;;;;;7.63;6.13;;;2.60;95.20;;;;;;4996620;28;20078;-96
2021/01/27 08:01:52;;;;;;;7.07;5.63;;;2.50;95.30;;;;;;5009156;28;20047;-96
2021/01/27 08:04:44;;;;;;;6.78;5.60;;;2.60;95.30;;;;;;5003896;28;20033;-96
2021/01/27 08:07:23;;;;;;;7.07;5.57;;;2.60;95.40;;;;;;4974102;29;20019;-96
2021/01/27 08:09:50;;;;;;;5.47;4.65;;;2.60;95.40;;;;;;4951506;28;20043;-96
2021/01/27 08:12:32;;;;;;;8.48;6.45;;;2.70;95.30;;;;;;4982735;28;20106;-96
2021/01/27 08:15:06;;;;;;;6.25;5.63;;;2.70;95.40;;;;;;4976398;28;20058;-96
2021/01/27 08:17:51;;;;;;;5.45;4.60;;;2.70;95.50;;;;;;4991345;28;20010;-96
2021/01/27 08:20:23;;;;;;;6.38;4.55;;;2.80;95.50;;;;;;4994461;28;20039;-95
2021/01/27 08:23:00;;;;;;;5.60;4.43;;;2.80;95.50;;;;;;4986369;28;20046;-96
2021/01/27 08:25:51;;;;;;;7.53;4.53;;;2.80;95.50;;;;;;4979189;28;20494;-95
2021/01/27 08:28:36;;;;;;;6.72;4.60;;;2.90;95.40;;;;;;4973935;28;20441;-94
2021/01/27 08:31:08;;;;;;;5.90;4.82;;;2.90;95.50;;;;;;4984294;28;20041;-94
2021/01/27 08:33:46;;;;;;;7.10;4.70;;;2.90;95.40;;;;;;4981574;28;20027;-95
2021/01/27 08:36:20;;;;;;;6.38;4.28;;;2.90;95.40;;;;;;4963792;28;22270;-96
2021/01/27 08:38:57;;;;;;;5.90;4.43;;;3.00;95.50;;;;;;4985307;28;20054;-95
2021/01/27 08:41:51;;;;;;;5.50;4.38;;;3.00;95.50;;;;;;4987023;28;20042;-96
2021/01/27 08:44:23;;;;;;;5.88;4.60;;;3.00;95.40;;;;;;4989970;28;20033;-96
2021/01/27 08:47:16;;;;;;;5.85;4.35;;;3.00;95.50;;;;;;5027232;28;20033;-95
2021/01/27 08:49:52;;;;;;;5.25;4.10;;;3.00;95.50;;;;;;4973177;28;20042;-95
2021/01/27 08:52:19;;;;;;;5.43;4.40;;;3.10;95.50;;;;;;4980761;28;20046;-95
2021/01/27 08:54:48;;;;;;;6.07;4.88;;;3.10;95.50;;;;;;4987787;28;20051;-96
2021/01/27 08:57:20;;;;;;;5.18;4.25;;;3.10;95.50;;;;;;4988310;28;20030;-96
2021/01/27 09:00:11;;;;;;;5.88;5.28;;;3.10;95.40;;;;;;4987628;28;20035;-95
2021/01/27 09:02:51;;;;;;;7.53;5.45;;;3.10;95.40;;;;;;4988699;28;20030;-95
2021/01/27 09:05:19;;;;;;;7.70;5.97;;;3.10;95.50;;;;;;4995310;28;20544;-95
2021/01/27 09:07:52;;;;;;;7.22;5.30;;;3.10;95.50;;;;;;4985741;28;20027;-96
2021/01/27 09:10:36;;;;;;;6.82;5.32;;;3.10;95.50;;;;;;4985034;28;20023;-96
2021/01/27 09:13:26;;;;;;;8.15;6.07;;;3.20;95.60;;;;;;4969751;28;20031;-96
2021/01/27 09:16:00;;;;;;;8.48;6.75;;;3.20;95.60;;;;;;4977711;28;20027;-96
2021/01/27 09:18:26;;;;;;;8.90;6.45;;;3.20;95.60;;;;;;4980778;28;20168;-96
2021/01/27 09:20:52;;;;;;;9.05;7.00;;;3.20;95.60;;;;;;5024984;28;20070;-96
2021/01/27 09:23:19;;;;;;;10.88;6.53;;;3.20;95.60;;;;;;4977986;28;20023;-96
2021/01/27 09:25:49;;;;;;;7.95;6.13;;;3.20;95.60;;;;;;4983764;28;20007;-95
2021/01/27 09:28:26;;;;;;;8.02;6.65;;;3.20;95.60;;;;;;4988964;28;20046;-96
2021/01/27 09:30:55;;;;;;;7.65;6.35;;;3.20;95.60;;;;;;5088796;28;20028;-96
2021/01/27 09:33:36;;;;;;;11.52;6.95;;;3.20;95.60;;;;;;5014914;28;20065;-95
2021/01/27 09:36:30;;;;;;;7.60;6.40;;;3.30;95.70;;;;;;5071061;28;20040;-95
2021/01/27 09:38:57;;;;;;;8.35;6.25;;;3.30;95.70;;;;;;4996541;28;20018;-95
2021/01/27 09:41:28;;;;;;;13.05;7.57;;;3.30;95.70;;;;;;4997092;28;20030;-94
2021/01/27 09:43:56;;;;;;;9.32;7.50;;;3.30;95.80;;;;;;4974304;28;20041;-96
2021/01/27 09:46:30;;;;;;;9.07;7.28;;;3.30;95.70;;;;;;4975169;28;20023;-95
2021/01/27 09:49:10;;;;;;;9.73;8.20;;;3.30;95.80;;;;;;5013692;28;20027;-96
2021/01/27 09:51:39;;;;;;;10.90;7.75;;;3.30;95.80;;;;;;4991120;28;20038;-95
2021/01/27 09:54:07;;;;;;;10.85;9.00;;;3.30;95.80;;;;;;4993513;28;20019;-96
2021/01/27 09:56:33;;;;;;;11.43;9.20;;;3.40;95.80;;;;;;4993980;28;20114;-96
2021/01/27 09:59:03;;;;;;;12.40;9.85;;;3.40;95.90;;;;;;4987923;28;20077;-96
2021/01/27 10:01:43;;;;;;;14.27;9.88;;;3.40;95.90;;;;;;4975682;28;20047;-96
2021/01/27 10:04:40;;;;;;;14.43;9.98;;;3.50;96.00;;;;;;4988307;28;20011;-96
2021/01/27 10:07:40;;;;;;;13.93;10.63;;;3.50;96.00;;;;;;4979645;28;20024;-96
2021/01/27 10:10:16;;;;;;;14.55;10.13;;;3.60;96.00;;;;;;4985083;22;20104;-74
2021/01/27 10:12:44;;;;;;;16.35;11.75;;;3.60;96.00;;;;;;4980760;28;20026;-73
2021/01/27 10:15:29;;;;;;;16.50;11.52;;;3.60;96.00;;;;;;5032133;28;20031;-73
2021/01/27 10:18:09;;;;;;;16.70;12.45;;;3.60;96.00;;;;;;5035594;28;20032;-74
2021/01/27 10:20:37;;;;;;;18.63;12.95;;;3.60;96.00;;;;;;5038088;28;20026;-73
2021/01/27 10:23:12;;;;;;;19.38;13.57;;;3.70;96.10;;;;;;4975915;28;20027;-72
2021/01/27 10:25:47;;;;;;;17.98;12.85;;;3.80;96.10;;;;;;4971991;28;20154;-73
2021/01/27 10:28:23;;;;;;;19.20;13.45;;;3.80;96.20;;;;;;5033295;28;20099;-73
2021/01/27 10:30:59;;;;;;;18.95;12.75;;;3.80;96.10;;;;;;5012433;28;20032;-73
2021/01/27 10:33:51;;;;;;;19.23;13.73;;;3.80;96.10;;;;;;5083524;28;20066;-75
2021/01/27 10:36:49;;;;;;;18.13;12.50;;;3.90;96.20;;;;;;5044844;28;20023;-72
2021/01/27 10:39:20;;;;;;;19.45;13.57;;;4.00;96.10;;;;;;4960222;28;20215;-73
2021/01/27 10:42:05;;;;;;;18.10;13.02;;;4.00;96.10;;;;;;4990451;28;20019;-71
2021/01/27 10:44:34;;;;;;;17.15;12.65;;;4.00;96.10;;;;;;4992319;28;20033;-72
2021/01/27 10:47:08;;;;;;;18.42;13.48;;;4.00;96.10;;;;;;4987225;28;20027;-72
2021/01/27 10:49:44;;;;;;;19.70;14.25;;;4.00;96.10;;;;;;4989222;28;20123;-72
2021/01/27 10:52:23;;;;;;;21.08;14.23;;;4.00;96.10;;;;;;4987776;28;20151;-72
2021/01/27 10:55:00;;;;;;;22.17;14.50;;;4.10;96.20;;;;;;4989720;28;20034;-73
2021/01/27 10:57:26;;;;;;;20.42;15.07;;;4.10;96.20;;;;;;4992053;28;20030;-72
2021/01/27 10:59:53;;;;;;;21.63;15.45;;;4.10;96.30;;;;;;4987841;28;20547;-73
2021/01/27 11:02:19;;;;;;;20.58;15.13;;;4.10;96.20;;;;;;5027639;28;20081;-72
2021/01/27 11:04:44;;;;;;;23.80;17.02;;;4.20;96.30;;;;;;5066797;28;20455;-74
2021/01/27 11:07:10;;;;;;;24.25;14.88;;;4.20;96.20;;;;;;4984033;28;20114;-73
2021/01/27 11:09:36;;;;;;;22.40;14.95;;;4.20;96.20;;;;;;4987485;28;20051;-73
2021/01/27 11:12:01;;;;;;;21.42;14.07;;;4.30;96.20;;;;;;4987694;28;20046;-73
2021/01/27 11:14:27;;;;;;;22.35;15.35;;;4.20;96.20;;;;;;4993238;28;20053;-73
2021/01/27 11:16:52;;;;;;;25.30;17.17;;;4.30;96.20;;;;;;4983417;28;20163;-73
2021/01/27 11:19:18;;;;;;;24.25;16.30;;;4.30;96.20;;;;;;4992384;28;20373;-73
2021/01/27 11:21:43;;;;;;;28.77;17.85;;;4.30;96.20;;;;;;4999515;28;20117;-72
2021/01/27 11:24:09;;;;;;;25.30;16.38;;;4.30;96.30;;;;;;4989689;28;20029;-72
2021/01/27 11:26:35;;;;;;;29.50;17.58;;;4.30;96.20;;;;;;4997464;28;20030;-73
2021/01/27 11:29:01;;;;;;;31.13;20.00;;;4.30;96.30;;;;;;4995472;28;20129;-73
2021/01/27 11:31:28;;;;;;;27.70;17.52;;;4.40;96.30;;;;;;4988265;28;20030;-73
2021/01/27 11:33:54;;;;;;;31.88;20.88;;;4.40;96.30;;;;;;4988159;28;20039;-72
2021/01/27 11:36:21;;;;;;;30.77;18.88;;;4.40;96.30;;;;;;5007216;28;20033;-74
2021/01/27 11:38:49;;;;;;;30.48;20.38;;;4.40;96.30;;;;;;4990304;28;20388;-74
2021/01/27 11:41:15;;;;;;;36.35;21.48;;;4.40;96.40;;;;;;4991579;28;20018;-73
2021/01/27 11:43:43;;;;;;;34.85;22.02;;;4.50;96.40;;;;;;4975769;28;20117;-73
2021/01/27 11:46:13;;;;;;;35.63;21.38;;;4.40;96.40;;;;;;4990171;28;20022;-73
2021/01/27 11:48:39;;;;;;;38.80;22.90;;;4.50;96.50;;;;;;4991909;28;20113;-73
2021/01/27 11:51:06;;;;;;;35.35;21.63;;;4.50;96.50;;;;;;4991751;28;20109;-73
2021/01/27 11:53:32;;;;;;;38.25;22.83;;;4.60;96.60;;;;;;4998714;28;20032;-73
2021/01/27 11:55:58;;;;;;;40.17;23.52;;;4.60;96.50;;;;;;5050272;28;20047;-72
2021/01/27 11:58:24;;;;;;;37.70;22.65;;;4.70;96.50;;;;;;5092365;28;20024;-73
2021/01/27 12:00:50;;;;;;;39.25;24.30;;;4.70;96.50;;;;;;5092160;28;20035;-73
2021/01/27 12:03:16;;;;;;;35.25;21.52;;;4.80;96.60;;;;;;5013376;28;20018;-73
2021/01/27 12:05:41;;;;;;;38.70;23.45;;;4.80;96.50;;;;;;4994268;28;20140;-73
2021/01/27 12:08:07;;;;;;;47.28;25.77;;;4.80;96.50;;;;;;4990134;28;20027;-74
2021/01/27 12:10:32;;;;;;;40.50;22.80;;;4.90;96.50;;;;;;4989880;28;20042;-73
2021/01/27 12:12:58;;;;;;;35.65;22.17;;;4.90;96.60;;;;;;4990041;28;20427;-73
2021/01/27 12:15:24;;;;;;;45.58;25.25;;;5.00;96.60;;;;;;4989737;28;20037;-73
2021/01/27 12:17:51;;;;;;;38.05;24.58;;;5.10;96.70;;;;;;4989942;28;20149;-74
2021/01/27 12:20:17;;;;;;;42.40;26.08;;;5.10;96.50;;;;;;4991803;28;20026;-73
2021/01/27 12:22:43;;;;;;;42.40;25.52;;;5.20;96.60;;;;;;4988757;28;20026;-74
2021/01/27 12:25:09;;;;;;;37.15;22.73;;;5.20;96.50;;;;;;4990693;28;20361;-71
2021/01/27 12:27:35;;;;;;;36.33;22.38;;;5.30;96.60;;;;;;4989751;28;20018;-71
2021/01/27 12:30:00;;;;;;;38.50;24.02;;;5.30;96.50;;;;;;5018651;28;20023;-71
2021/01/27 12:32:26;;;;;;;38.03;23.10;;;5.30;96.40;;;;;;4988222;28;20030;-71
2021/01/27 12:34:51;;;;;;;37.88;23.33;;;5.40;96.40;;;;;;4990484;28;20072;-71
2021/01/27 12:37:18;;;;;;;38.72;22.83;;;5.40;96.40;;;;;;4988264;28;20034;-72
2021/01/27 12:39:43;;;;;;;44.85;28.02;;;5.40;96.80;;;;;;4987878;28;20125;-73
2021/01/27 12:42:09;;;;;;;40.15;24.38;;;5.40;96.50;;;;;;4990557;28;20054;-72
2021/01/27 12:44:35;;;;;;;34.05;20.45;;;5.50;96.50;;;;;;4989148;28;20425;-72
2021/01/27 12:47:01;;;;;;;39.55;24.88;;;5.50;96.40;;;;;;4989679;28;20023;-73
2021/01/27 12:49:26;;;;;;;40.88;23.80;;;5.50;96.40;;;;;;4976781;28;20035;-72
2021/01/27 12:51:52;;;;;;;42.80;24.80;;;5.50;96.40;;;;;;4989343;28;20386;-72
2021/01/27 12:54:17;;;;;;;40.47;24.58;;;5.60;96.50;;;;;;4987548;28;20046;-72
2021/01/27 12:56:43;;;;;;;42.65;24.83;;;5.60;96.40;;;;;;4990660;28;20440;-72
2021/01/27 12:59:09;;;;;;;41.60;23.23;;;5.60;96.30;;;;;;4988959;28;20113;-73
2021/01/27 13:01:34;;;;;;;46.33;25.92;;;5.60;96.40;;;;;;4988246;28;20033;-72
2021/01/27 13:04:00;;;;;;;44.65;25.20;;;5.70;96.40;;;;;;4993863;28;20068;-73
2021/01/27 13:06:26;;;;;;;44.45;24.75;;;5.70;96.30;;;;;;4993200;28;20030;-73
2021/01/27 13:08:51;;;;;;;44.08;26.02;;;5.70;96.30;;;;;;4991592;28;20028;-73
2021/01/27 13:11:17;;;;;;;46.75;24.98;;;5.70;96.30;;;;;;4991483;28;20026;-73
2021/01/27 13:13:43;;;;;;;47.47;27.48;;;5.70;96.30;;;;;;5001232;28;20034;-73
2021/01/27 13:16:09;;;;;;;43.95;25.80;;;5.70;96.30;;;;;;4995361;28;20030;-73
2021/01/27 13:18:34;;;;;;;43.65;24.90;;;5.70;96.30;;;;;;4989889;28;20088;-73
2021/01/27 13:21:01;;;;;;;42.47;24.55;;;5.70;96.20;;;;;;4986055;28;20030;-72
2021/01/27 13:23:27;;;;;;;39.95;23.50;;;5.70;96.30;;;;;;4992770;28;20099;-73
2021/01/27 13:25:53;;;;;;;39.85;23.65;;;5.70;96.20;;;;;;4991181;28;20018;-72
2021/01/27 13:28:18;;;;;;;41.75;23.77;;;5.60;96.20;;;;;;4995363;28;20016;-71
2021/01/27 13:30:44;;;;;;;43.75;26.65;;;5.60;96.30;;;;;;4991410;28;20128;-73